createdAt,value
2023-03-21T00:01:19.682Z,8.80
2023-03-21T00:03:49.385Z,8.80
2023-03-21T00:06:17.642Z,8.80
2023-03-21T00:08:45.935Z,8.80
2023-03-21T00:11:16.668Z,8.80
2023-03-21T00:13:44.931Z,8.80
2023-03-21T00:16:20.803Z,8.80
2023-03-21T00:18:57.387Z,8.70
2023-03-21T00:24:16.923Z,8.70
2023-03-21T00:26:46.922Z,8.70
2023-03-21T00:29:15.228Z,8.70
2023-03-21T00:31:43.670Z,8.70
2023-03-21T00:36:41.610Z,8.70
2023-03-21T00:39:10.027Z,8.70
2023-03-21T00:41:42.925Z,8.70
2023-03-21T00:44:15.856Z,8.70
2023-03-21T00:46:57.473Z,8.70
2023-03-21T00:49:34.109Z,8.70
2023-03-21T00:52:15.130Z,8.70
2023-03-21T00:54:45.782Z,8.70
2023-03-21T00:57:20.270Z,8.70
2023-03-21T00:59:55.026Z,8.70
2023-03-21T01:02:26.772Z,8.60
2023-03-21T01:04:55.677Z,8.60
2023-03-21T01:07:24.250Z,8.60
2023-03-21T01:09:52.823Z,8.50
2023-03-21T01:12:21.220Z,8.50
2023-03-21T01:14:49.709Z,8.50
2023-03-21T01:17:19.488Z,8.50
2023-03-21T01:19:51.989Z,8.50
2023-03-21T01:22:21.299Z,8.50
2023-03-21T01:24:55.591Z,8.50
2023-03-21T01:27:28.979Z,8.50
2023-03-21T01:29:57.801Z,8.50
2023-03-21T01:32:28.496Z,8.50
2023-03-21T01:34:57.050Z,8.60
2023-03-21T01:37:26.629Z,8.60
2023-03-21T01:39:55.049Z,8.60
2023-03-21T01:42:23.439Z,8.60
2023-03-21T01:44:57.318Z,8.60
2023-03-21T01:47:27.566Z,8.60
2023-03-21T01:49:59.182Z,8.60
2023-03-21T01:52:39.678Z,8.60
2023-03-21T01:55:12.772Z,8.60
2023-03-21T01:58:02.115Z,8.60
2023-03-21T02:00:33.958Z,8.60
2023-03-21T02:03:15.162Z,8.60
2023-03-21T02:05:53.701Z,8.50
2023-03-21T02:08:33.346Z,8.50
2023-03-21T02:11:07.503Z,8.50
2023-03-21T02:13:36.496Z,8.50
2023-03-21T02:16:11.639Z,8.50
2023-03-21T02:18:47.939Z,8.50
2023-03-21T02:21:44.418Z,8.50
2023-03-21T02:24:46.507Z,8.50
2023-03-21T02:27:23.947Z,8.50
2023-03-21T02:30:37.486Z,8.50
2023-03-21T02:34:04.989Z,8.50
2023-03-21T02:36:55.795Z,8.50
2023-03-21T02:39:29.190Z,8.50
2023-03-21T02:42:06.743Z,8.60
2023-03-21T02:44:42.840Z,8.60
2023-03-21T02:47:15.524Z,8.60
2023-03-21T02:49:48.143Z,8.60
2023-03-21T02:52:35.597Z,8.60
2023-03-21T02:55:13.756Z,8.60
2023-03-21T02:57:45.436Z,8.60
2023-03-21T03:00:19.739Z,8.60
2023-03-21T03:02:54.547Z,8.50
2023-03-21T03:05:30.634Z,8.50
2023-03-21T03:08:26.634Z,8.50
2023-03-21T03:11:13.343Z,8.50
2023-03-21T03:13:58.152Z,8.50
2023-03-21T03:16:36.815Z,8.50
2023-03-21T03:19:08.753Z,8.50
2023-03-21T03:21:43.353Z,8.50
2023-03-21T03:24:20.264Z,8.50
2023-03-21T03:26:54.372Z,8.50
2023-03-21T03:29:24.104Z,8.50
2023-03-21T03:31:57.389Z,8.50
2023-03-21T03:34:33.142Z,8.50
2023-03-21T03:37:05.390Z,8.50
2023-03-21T03:39:40.601Z,8.50
2023-03-21T03:42:27.219Z,8.50
2023-03-21T03:44:57.331Z,8.50
2023-03-21T03:47:34.970Z,8.50
2023-03-21T03:50:10.498Z,8.50
2023-03-21T03:52:53.613Z,8.50
2023-03-21T03:55:28.309Z,8.50
2023-03-21T03:57:57.201Z,8.50
2023-03-21T04:00:25.887Z,8.50
2023-03-21T04:02:54.302Z,8.50
2023-03-21T04:05:22.674Z,8.60
2023-03-21T04:07:51.350Z,8.60
2023-03-21T04:10:20.510Z,8.60
2023-03-21T04:12:50.484Z,8.60
2023-03-21T04:15:20.490Z,8.60
2023-03-21T04:17:49.245Z,8.70
2023-03-21T04:20:30.337Z,8.70
2023-03-21T04:23:05.133Z,8.70
2023-03-21T04:25:36.923Z,8.80
2023-03-21T04:28:08.964Z,8.80
2023-03-21T04:30:38.693Z,8.80
2023-03-21T04:33:07.411Z,8.80
2023-03-21T04:35:37.680Z,8.80
2023-03-21T04:38:06.567Z,8.80
2023-03-21T04:40:36.188Z,8.80
2023-03-21T04:43:05.097Z,8.80
2023-03-21T04:45:35.538Z,8.80
2023-03-21T04:48:04.721Z,8.80
2023-03-21T04:50:33.291Z,8.80
2023-03-21T04:53:01.748Z,8.80
2023-03-21T04:55:31.748Z,8.80
2023-03-21T04:58:00.148Z,8.80
2023-03-21T05:00:28.693Z,8.80
2023-03-21T05:02:58.747Z,8.80
2023-03-21T05:05:27.257Z,8.80
2023-03-21T05:07:55.707Z,8.80
2023-03-21T05:10:24.140Z,8.90
2023-03-21T05:12:52.586Z,8.90
2023-03-21T05:15:21.123Z,8.90
2023-03-21T05:17:49.810Z,8.90
2023-03-21T05:20:19.834Z,8.90
2023-03-21T05:22:50.236Z,9.00
2023-03-21T05:25:34.098Z,9.00
2023-03-21T05:28:02.814Z,9.00
2023-03-21T05:30:31.414Z,9.00
2023-03-21T05:33:00.125Z,9.00
2023-03-21T05:35:30.125Z,9.00
2023-03-21T05:37:59.263Z,9.00
2023-03-21T05:40:27.655Z,9.00
2023-03-21T05:42:55.923Z,9.10
2023-03-21T05:45:24.352Z,9.10
2023-03-21T05:47:52.608Z,9.10
2023-03-21T05:50:21.101Z,9.10
2023-03-21T05:52:50.916Z,9.10
2023-03-21T05:55:19.510Z,9.10
2023-03-21T05:57:47.811Z,9.10
2023-03-21T06:00:17.393Z,9.20
2023-03-21T06:02:46.301Z,9.20
2023-03-21T06:05:14.931Z,9.30
2023-03-21T06:07:43.286Z,9.30
2023-03-21T06:10:13.717Z,9.30
2023-03-21T06:12:43.208Z,9.40
2023-03-21T06:15:12.215Z,9.40
2023-03-21T06:17:41.140Z,9.40
2023-03-21T06:20:10.766Z,9.40
2023-03-21T06:22:39.518Z,9.50
2023-03-21T06:25:09.581Z,9.50
2023-03-21T06:27:39.412Z,9.50
2023-03-21T06:30:09.369Z,9.50
2023-03-21T06:32:37.667Z,9.50
2023-03-21T06:35:06.682Z,9.60
2023-03-21T06:37:34.963Z,9.60
2023-03-21T06:40:05.104Z,9.60
2023-03-21T06:42:33.663Z,9.60
2023-03-21T06:45:03.683Z,9.70
2023-03-21T06:47:32.008Z,9.70
2023-03-21T06:50:00.418Z,9.70
2023-03-21T06:52:28.755Z,9.70
2023-03-21T06:54:57.089Z,9.80
2023-03-21T06:57:25.402Z,9.80
2023-03-21T06:59:53.642Z,9.80
2023-03-21T07:02:23.429Z,9.90
2023-03-21T07:04:51.835Z,9.90
2023-03-21T07:07:20.194Z,10.00
2023-03-21T07:09:48.549Z,10.00
2023-03-21T07:12:17.583Z,10.10
2023-03-21T07:14:45.981Z,10.10
2023-03-21T07:17:14.247Z,10.10
2023-03-21T07:19:44.896Z,10.20
2023-03-21T07:22:13.274Z,10.20
2023-03-21T07:24:41.522Z,10.30
2023-03-21T07:27:09.789Z,10.30
2023-03-21T07:29:38.062Z,10.30
2023-03-21T07:32:06.736Z,10.40
2023-03-21T07:34:35.399Z,10.40
2023-03-21T07:37:07.073Z,10.50
2023-03-21T07:39:35.673Z,10.50
2023-03-21T07:42:04.008Z,10.50
2023-03-21T07:44:33.636Z,10.60
2023-03-21T07:47:01.972Z,10.50
2023-03-21T07:49:31.201Z,10.50
2023-03-21T07:52:04.319Z,10.50
2023-03-21T07:54:34.660Z,10.50
2023-03-21T07:57:05.784Z,10.40
2023-03-21T07:59:34.084Z,10.30
2023-03-21T08:02:02.432Z,10.30
2023-03-21T08:04:30.781Z,10.30
2023-03-21T08:06:59.983Z,10.30
2023-03-21T08:09:30.691Z,10.30
2023-03-21T08:12:00.726Z,10.30
2023-03-21T08:14:29.020Z,10.30
2023-03-21T08:16:57.579Z,10.30
2023-03-21T08:19:27.144Z,10.30
2023-03-21T08:21:55.622Z,10.30
2023-03-21T08:24:23.921Z,10.20
2023-03-21T08:26:52.365Z,10.20
2023-03-21T08:29:23.105Z,10.20
2023-03-21T08:31:51.382Z,10.20
2023-03-21T08:34:21.099Z,10.10
2023-03-21T08:36:49.381Z,10.10
2023-03-21T08:39:17.911Z,10.10
2023-03-21T08:41:46.844Z,10.00
2023-03-21T08:44:16.965Z,10.00
2023-03-21T08:46:46.714Z,10.00
2023-03-21T08:49:14.942Z,10.00
2023-03-21T08:51:45.789Z,10.10
2023-03-21T08:54:21.530Z,10.10
2023-03-21T08:56:49.834Z,10.10
2023-03-21T08:59:18.165Z,10.10
2023-03-21T09:01:48.181Z,10.10
2023-03-21T09:04:18.990Z,10.10
2023-03-21T09:06:48.772Z,10.10
2023-03-21T09:09:18.061Z,10.20
2023-03-21T09:11:46.852Z,10.20
2023-03-21T09:14:15.693Z,10.20
2023-03-21T09:16:43.973Z,10.30
2023-03-21T09:19:13.665Z,10.30
2023-03-21T09:21:42.499Z,10.30
2023-03-21T09:24:12.693Z,10.30
2023-03-21T09:26:41.745Z,10.20
2023-03-21T09:29:10.152Z,10.20
2023-03-21T09:31:40.083Z,10.10
2023-03-21T09:34:12.042Z,10.10
2023-03-21T09:36:42.174Z,10.10
2023-03-21T09:39:10.468Z,10.10
2023-03-21T09:41:59.376Z,10.10
2023-03-21T09:44:40.299Z,10.10
2023-03-21T09:47:20.753Z,10.10
2023-03-21T09:49:56.584Z,10.20
2023-03-21T09:52:34.485Z,10.20
2023-03-21T09:55:06.150Z,10.30
2023-03-21T09:57:40.121Z,10.40
2023-03-21T10:00:20.794Z,10.50
2023-03-21T10:02:51.870Z,10.50
2023-03-21T10:05:22.217Z,10.50
2023-03-21T10:07:58.624Z,10.50
2023-03-21T10:10:29.893Z,10.50
2023-03-21T10:12:58.487Z,10.50
2023-03-21T10:15:28.830Z,10.60
2023-03-21T10:18:01.823Z,10.60
2023-03-21T10:20:33.551Z,10.70
2023-03-21T10:23:06.768Z,10.80
2023-03-21T10:25:37.850Z,10.70
2023-03-21T10:28:08.691Z,10.80
2023-03-21T10:30:42.354Z,10.80
2023-03-21T10:33:14.913Z,10.80
2023-03-21T10:35:47.909Z,10.80
2023-03-21T10:38:20.149Z,10.90
2023-03-21T10:40:48.859Z,10.90
2023-03-21T10:43:20.544Z,11.00
2023-03-21T10:45:50.083Z,11.10
2023-03-21T10:48:18.770Z,11.10
2023-03-21T10:50:50.724Z,11.20
2023-03-21T10:53:23.799Z,11.10
2023-03-21T10:55:59.649Z,11.20
2023-03-21T10:58:30.309Z,11.20
2023-03-21T11:01:02.741Z,11.30
2023-03-21T11:03:33.938Z,11.40
2023-03-21T11:06:05.155Z,11.30
2023-03-21T11:08:40.449Z,11.30
2023-03-21T11:11:12.460Z,11.30
2023-03-21T11:13:42.963Z,11.30
2023-03-21T11:16:19.513Z,11.30
2023-03-21T11:18:52.226Z,11.30
2023-03-21T11:21:29.692Z,11.30
2023-03-21T11:23:59.742Z,11.20
2023-03-21T11:26:31.263Z,11.20
2023-03-21T11:29:00.106Z,11.10
2023-03-21T11:31:39.858Z,11.20
2023-03-21T11:34:09.659Z,11.20
2023-03-21T11:36:40.006Z,11.20
2023-03-21T11:39:29.572Z,11.20
2023-03-21T11:41:58.016Z,11.30
2023-03-21T11:44:32.211Z,11.40
2023-03-21T11:47:01.248Z,11.40
2023-03-21T11:49:30.242Z,11.40
2023-03-21T11:52:12.483Z,11.50
2023-03-21T11:55:01.496Z,11.50
2023-03-21T11:57:36.723Z,11.40
2023-03-21T12:00:14.833Z,11.30
2023-03-21T12:03:23.873Z,11.20
2023-03-21T12:05:57.081Z,11.20
2023-03-21T12:08:40.256Z,11.00
2023-03-21T12:11:16.633Z,11.00
2023-03-21T12:13:54.907Z,11.00
2023-03-21T12:16:32.813Z,11.00
2023-03-21T12:19:13.463Z,11.00
2023-03-21T12:21:50.908Z,10.90
2023-03-21T12:24:24.468Z,10.90
2023-03-21T12:27:01.126Z,11.00
2023-03-21T12:29:47.525Z,11.00
2023-03-21T12:32:26.732Z,11.00
2023-03-21T12:35:13.720Z,10.90
2023-03-21T12:37:55.508Z,10.90
2023-03-21T12:40:36.694Z,10.90
2023-03-21T12:43:30.479Z,10.90
2023-03-21T12:46:02.549Z,10.90
2023-03-21T12:48:39.649Z,10.90
2023-03-21T12:51:14.863Z,10.90
2023-03-21T12:53:59.184Z,10.90
2023-03-21T12:56:32.368Z,11.00
2023-03-21T12:59:10.448Z,11.10
2023-03-21T13:01:41.381Z,11.10
2023-03-21T13:04:32.727Z,11.10
2023-03-21T13:07:04.857Z,11.10
2023-03-21T13:09:38.221Z,11.20
2023-03-21T13:12:26.162Z,11.20
2023-03-21T13:15:12.512Z,11.20
2023-03-21T13:17:47.438Z,11.20
2023-03-21T13:20:23.754Z,11.20
2023-03-21T13:22:52.249Z,11.20
2023-03-21T13:25:22.653Z,11.30
2023-03-21T13:27:55.448Z,11.40
2023-03-21T13:30:27.326Z,11.40
2023-03-21T13:33:06.826Z,11.50
2023-03-21T13:35:38.562Z,11.60
2023-03-21T13:38:12.979Z,11.80
2023-03-21T13:40:45.574Z,11.80
2023-03-21T13:43:40.130Z,11.80
2023-03-21T13:46:12.124Z,11.90
2023-03-21T13:48:59.481Z,12.00
2023-03-21T13:51:47.759Z,12.10
2023-03-21T13:54:24.397Z,12.10
2023-03-21T13:56:55.185Z,12.10
2023-03-21T13:59:42.511Z,12.20
2023-03-21T14:02:30.661Z,12.20
2023-03-21T14:05:06.260Z,12.10
2023-03-21T14:07:41.093Z,12.10
2023-03-21T14:10:18.711Z,12.00
2023-03-21T14:12:48.584Z,12.10
2023-03-21T14:15:22.929Z,12.10
2023-03-21T14:17:54.960Z,12.20
2023-03-21T14:20:26.414Z,12.20
2023-03-21T14:22:54.966Z,12.30
2023-03-21T14:25:37.168Z,12.40
2023-03-21T14:28:16.872Z,12.50
2023-03-21T14:30:46.626Z,12.40
2023-03-21T14:33:19.974Z,12.50
2023-03-21T14:35:49.800Z,12.60
2023-03-21T14:38:23.585Z,12.60
2023-03-21T14:40:53.601Z,12.60
2023-03-21T14:43:23.985Z,12.50
2023-03-21T14:45:54.532Z,12.40
2023-03-21T14:48:30.744Z,12.40
2023-03-21T14:51:03.863Z,12.40
2023-03-21T14:53:34.602Z,12.30
2023-03-21T14:56:07.617Z,12.20
2023-03-21T14:58:39.281Z,12.20
2023-03-21T15:01:14.800Z,12.20
2023-03-21T15:03:46.310Z,12.20
2023-03-21T15:06:16.012Z,12.20
2023-03-21T15:08:56.370Z,12.20
2023-03-21T15:11:32.517Z,12.20
2023-03-21T15:14:03.945Z,12.10
2023-03-21T15:16:33.344Z,12.10
2023-03-21T15:19:05.253Z,12.10
2023-03-21T15:21:38.492Z,12.10
2023-03-21T15:24:13.995Z,12.10
2023-03-21T15:26:46.102Z,12.20
2023-03-21T15:29:16.357Z,12.20
2023-03-21T15:31:45.622Z,12.20
2023-03-21T15:34:22.556Z,12.20
2023-03-21T15:36:56.345Z,12.10
2023-03-21T15:39:26.784Z,12.10
2023-03-21T15:42:00.582Z,12.10
2023-03-21T15:44:30.857Z,12.10
2023-03-21T15:46:59.713Z,12.10
2023-03-21T15:49:31.644Z,12.10
2023-03-21T15:52:05.214Z,12.10
2023-03-21T15:54:35.181Z,12.10
2023-03-21T15:57:09.656Z,12.10
2023-03-21T15:59:42.158Z,12.10
2023-03-21T16:02:18.685Z,12.00
2023-03-21T16:04:59.000Z,12.00
2023-03-21T16:07:27.907Z,11.90
2023-03-21T16:10:04.789Z,11.90
2023-03-21T16:12:34.298Z,11.80
2023-03-21T16:15:02.794Z,11.80
2023-03-21T16:17:37.570Z,11.70
2023-03-21T16:20:17.662Z,11.70
2023-03-21T16:22:47.498Z,11.70
2023-03-21T16:25:16.202Z,11.70
2023-03-21T16:27:45.252Z,11.60
2023-03-21T16:30:15.147Z,11.70
2023-03-21T16:32:43.792Z,11.60
2023-03-21T16:35:14.179Z,11.60
2023-03-21T16:37:42.578Z,11.70
2023-03-21T16:40:19.805Z,11.70
2023-03-21T16:42:48.676Z,11.80
2023-03-21T16:45:18.361Z,11.90
2023-03-21T16:47:47.531Z,12.10
2023-03-21T16:50:25.313Z,12.10
2023-03-21T16:52:53.961Z,12.10
2023-03-21T16:55:22.691Z,12.00
2023-03-21T16:57:53.523Z,11.90
2023-03-21T17:00:25.179Z,11.90
2023-03-21T17:02:58.603Z,11.80
2023-03-21T17:05:31.560Z,11.80
2023-03-21T17:08:03.147Z,11.70
2023-03-21T17:10:33.552Z,11.60
2023-03-21T17:13:04.926Z,11.60
2023-03-21T17:15:37.051Z,11.50
2023-03-21T17:18:07.312Z,11.40
2023-03-21T17:20:41.811Z,11.40
2023-03-21T17:23:11.282Z,11.40
2023-03-21T17:25:40.711Z,11.30
2023-03-21T17:28:09.081Z,11.30
2023-03-21T17:30:40.179Z,11.30
2023-03-21T17:33:09.050Z,11.20
2023-03-21T17:35:39.095Z,11.20
2023-03-21T17:38:13.399Z,11.20
2023-03-21T17:40:41.908Z,11.20
2023-03-21T17:43:14.734Z,11.10
2023-03-21T17:45:43.148Z,11.10
2023-03-21T17:48:12.132Z,11.10
2023-03-21T17:50:46.441Z,11.00
2023-03-21T17:53:15.031Z,11.00
2023-03-21T17:55:43.457Z,11.00
2023-03-21T17:58:12.985Z,11.00
2023-03-21T18:00:41.734Z,10.90
2023-03-21T18:03:10.188Z,10.90
2023-03-21T18:05:38.714Z,10.90
2023-03-21T18:08:11.365Z,10.80
2023-03-21T18:10:42.148Z,10.80
2023-03-21T18:13:11.509Z,10.80
2023-03-21T18:15:44.232Z,10.80
2023-03-21T18:18:14.134Z,10.80
2023-03-21T18:20:51.982Z,10.80
2023-03-21T18:23:23.675Z,10.80
2023-03-21T18:25:53.813Z,10.90
2023-03-21T18:28:23.164Z,10.90
2023-03-21T18:31:08.159Z,10.90
2023-03-21T18:33:40.343Z,10.90
2023-03-21T18:36:09.993Z,10.90
2023-03-21T18:38:40.637Z,10.90
2023-03-21T18:41:10.234Z,10.90
2023-03-21T18:44:16.712Z,11.00
2023-03-21T18:46:28.750Z,10.90
2023-03-21T18:48:57.361Z,10.90
2023-03-21T18:51:26.560Z,10.90
2023-03-21T18:53:57.808Z,10.90
2023-03-21T18:57:20.093Z,10.90
2023-03-21T18:59:14.923Z,10.90
2023-03-21T19:01:43.799Z,10.90
2023-03-21T19:04:23.145Z,10.90
2023-03-21T19:06:57.832Z,10.90
2023-03-21T19:09:31.928Z,10.90
2023-03-21T19:12:03.519Z,10.90
2023-03-21T19:14:33.013Z,10.90
2023-03-21T19:17:55.894Z,10.90
2023-03-21T19:19:51.477Z,10.90
2023-03-21T19:22:20.060Z,10.90
2023-03-21T19:24:54.631Z,10.90
2023-03-21T19:27:23.620Z,10.90
2023-03-21T19:30:08.434Z,10.90
2023-03-21T19:32:40.729Z,10.90
2023-03-21T19:35:10.120Z,10.90
2023-03-21T19:37:38.496Z,10.90
2023-03-21T19:40:10.361Z,10.90
2023-03-21T19:42:38.649Z,10.90
2023-03-21T19:45:07.915Z,10.90
2023-03-21T19:47:36.340Z,10.80
2023-03-21T19:52:53.537Z,10.70
2023-03-21T19:55:23.804Z,10.60
2023-03-21T19:57:53.700Z,10.60
2023-03-21T20:00:22.764Z,10.60
2023-03-21T20:02:51.914Z,10.50
2023-03-21T20:05:22.352Z,10.50
2023-03-21T20:07:51.218Z,10.50
2023-03-21T20:10:19.799Z,10.40
2023-03-21T20:12:51.600Z,10.40
2023-03-21T20:15:21.876Z,10.30
2023-03-21T20:17:52.038Z,10.30
2023-03-21T20:20:21.386Z,10.30
2023-03-21T20:23:06.152Z,10.20
2023-03-21T20:25:35.705Z,10.20
2023-03-21T20:28:15.840Z,10.20
2023-03-21T20:30:51.575Z,10.20
2023-03-21T20:33:20.404Z,10.10
2023-03-21T20:38:39.612Z,10.20
2023-03-21T20:41:09.133Z,10.20
2023-03-21T20:46:28.611Z,10.20
2023-03-21T20:48:59.397Z,10.10
2023-03-21T20:54:17.236Z,10.10
2023-03-21T20:56:45.914Z,10.10
2023-03-21T20:59:26.595Z,10.10
2023-03-21T21:01:59.019Z,10.10
2023-03-21T21:04:47.252Z,10.10
2023-03-21T21:07:21.096Z,10.10
2023-03-21T21:09:50.976Z,10.20
2023-03-21T21:12:20.212Z,10.10
2023-03-21T21:14:50.319Z,10.20
2023-03-21T21:17:37.128Z,10.20
2023-03-21T21:20:16.632Z,10.20
2023-03-21T21:22:59.080Z,10.20
2023-03-21T21:25:30.848Z,10.20
2023-03-21T21:27:59.271Z,10.30
2023-03-21T21:30:29.534Z,10.20
2023-03-21T21:32:59.660Z,10.20
2023-03-21T21:35:28.200Z,10.30
2023-03-21T21:37:56.550Z,10.30
2023-03-21T21:40:25.618Z,10.20
2023-03-21T21:42:54.211Z,10.20
2023-03-21T21:45:22.601Z,10.20
2023-03-21T21:47:52.425Z,10.20
2023-03-21T21:50:22.505Z,10.20
2023-03-21T21:52:54.455Z,10.10
2023-03-21T21:55:23.469Z,10.10
2023-03-21T21:57:52.915Z,10.10
2023-03-21T22:00:21.733Z,10.00
2023-03-21T22:02:51.512Z,10.00
2023-03-21T22:05:21.103Z,9.90
2023-03-21T22:07:54.479Z,9.90
2023-03-21T22:10:24.878Z,9.90
2023-03-21T22:12:53.416Z,9.80
2023-03-21T22:15:22.529Z,9.80
2023-03-21T22:17:52.440Z,9.80
2023-03-21T22:20:22.532Z,9.80
2023-03-21T22:22:51.392Z,9.80
2023-03-21T22:25:20.331Z,9.80
2023-03-21T22:27:48.759Z,9.80
2023-03-21T22:30:18.688Z,9.80
2023-03-21T22:33:02.498Z,9.70
2023-03-21T22:35:38.547Z,9.70
2023-03-21T22:38:06.989Z,9.70
2023-03-21T22:40:36.956Z,9.70
2023-03-21T22:43:05.727Z,9.70
2023-03-21T22:45:34.921Z,9.70
2023-03-21T22:48:03.650Z,9.70
2023-03-21T22:50:33.137Z,9.70
2023-03-21T22:53:02.765Z,9.70
2023-03-21T22:55:31.161Z,9.70
2023-03-21T22:57:59.459Z,9.80
2023-03-21T23:00:27.807Z,9.80
2023-03-21T23:02:57.214Z,9.90
2023-03-21T23:05:25.502Z,9.90
2023-03-21T23:07:54.035Z,9.90
2023-03-21T23:10:24.325Z,9.90
2023-03-21T23:12:52.781Z,9.90
2023-03-21T23:15:21.044Z,9.90
2023-03-21T23:17:49.780Z,9.90
2023-03-21T23:20:18.289Z,9.90
2023-03-21T23:22:46.599Z,9.90
2023-03-21T23:25:15.145Z,9.90
2023-03-21T23:27:44.850Z,9.90
2023-03-21T23:30:13.367Z,9.90
2023-03-21T23:32:41.837Z,9.90
2023-03-21T23:35:10.932Z,9.90
2023-03-21T23:37:42.428Z,9.90
2023-03-21T23:40:12.652Z,9.90
2023-03-21T23:42:40.977Z,9.90
2023-03-21T23:45:11.820Z,9.90
2023-03-21T23:47:40.313Z,9.90
2023-03-21T23:50:10.172Z,9.90
2023-03-21T23:52:41.578Z,10.00
2023-03-21T23:55:10.485Z,10.00
2023-03-21T23:57:41.824Z,10.00
